Time;durP1;ratioP1;P1;durP2;ratioP2;P2;SDS_P1;SDS_P2;PMS_P1;PMS_P2;Temp;Humidity;BMP_temperature;BMP_pressure;BME280_temperature;BME280_humidity;BME280_pressure;Samples;Min_cycle;Max_cycle;Signal;HPM_P1;HPM_P2
2023/02/02 00:01:30;;;;;;;7.60;2.50;;;;;;;;;;4936570;29;20313;-77
2023/02/02 00:04:00;;;;;;;9.53;3.07;;;;;;;;;;4942943;28;20226;-77
2023/02/02 00:06:27;;;;;;;9.30;2.77;;;;;;;;;;4926171;28;20239;-76
2023/02/02 00:08:52;;;;;;;8.93;2.87;;;;;;;;;;4927421;28;20222;-77
2023/02/02 00:11:23;;;;;;;12.73;2.47;;;;;;;;;;4936801;28;20790;-76
2023/02/02 00:13:55;;;;;;;9.60;2.73;;;;;;;;;;4939952;28;20223;-77
2023/02/02 00:16:29;;;;;;;9.57;3.00;;;;;;;;;;4917314;28;20302;-76
2023/02/02 00:18:56;;;;;;;10.07;2.83;;;;;;;;;;4967605;28;20353;-77
2023/02/02 00:21:22;;;;;;;12.10;3.13;;;;;;;;;;4940904;28;20234;-76
2023/02/02 00:23:50;;;;;;;11.30;3.07;;;;;;;;;;4968030;28;20277;-77
2023/02/02 00:26:22;;;;;;;15.87;3.37;;;;;;;;;;4936650;28;20895;-76
2023/02/02 00:28:48;;;;;;;7.53;2.83;;;;;;;;;;4944407;28;20285;-76
2023/02/02 00:31:18;;;;;;;11.20;2.73;;;;;;;;;;4950887;28;20258;-76
2023/02/02 00:33:49;;;;;;;9.63;2.70;;;;;;;;;;4926493;28;20233;-76
2023/02/02 00:36:16;;;;;;;9.90;2.70;;;;;;;;;;4926300;28;20716;-76
2023/02/02 00:38:47;;;;;;;11.20;3.17;;;;;;;;;;4925765;28;20219;-76
2023/02/02 00:41:15;;;;;;;13.57;3.70;;;;;;;;;;4955853;28;20227;-76
2023/02/02 00:43:40;;;;;;;10.53;3.20;;;;;;;;;;4925922;28;20238;-75
2023/02/02 00:46:11;;;;;;;6.43;2.10;;;;;;;;;;4942697;28;20222;-77
2023/02/02 00:48:39;;;;;;;12.27;3.33;;;;;;;;;;4947146;28;20224;-75
2023/02/02 00:51:08;;;;;;;8.63;2.80;;;;;;;;;;4930757;28;20226;-77
2023/02/02 00:53:35;;;;;;;12.37;3.37;;;;;;;;;;4913457;29;20222;-75
2023/02/02 00:56:01;;;;;;;13.90;3.20;;;;;;;;;;4943502;28;20226;-76
2023/02/02 00:58:31;;;;;;;13.40;3.03;;;;;;;;;;4955680;28;21166;-76
2023/02/02 01:00:56;;;;;;;13.00;3.00;;;;;;;;;;4928788;28;20230;-76
2023/02/02 01:03:22;;;;;;;12.10;3.37;;;;;;;;;;4935278;28;20279;-76
2023/02/02 01:05:52;;;;;;;11.70;3.67;;;;;;;;;;4944526;28;20378;-76
2023/02/02 01:08:21;;;;;;;12.13;3.73;;;;;;;;;;4966470;28;20704;-76
2023/02/02 01:10:46;;;;;;;13.53;3.00;;;;;;;;;;4954317;28;20223;-76
2023/02/02 01:13:14;;;;;;;16.80;3.17;;;;;;;;;;4962478;28;20230;-76
2023/02/02 01:15:46;;;;;;;14.60;3.23;;;;;;;;;;4944648;28;20891;-76
2023/02/02 01:18:14;;;;;;;11.43;3.53;;;;;;;;;;4935591;28;20756;-77
2023/02/02 01:20:40;;;;;;;15.43;4.17;;;;;;;;;;4940834;28;20230;-76
2023/02/02 01:23:06;;;;;;;12.37;3.03;;;;;;;;;;4929041;28;20226;-76
2023/02/02 01:25:37;;;;;;;12.60;3.27;;;;;;;;;;4927590;29;20250;-76
2023/02/02 01:28:05;;;;;;;10.30;3.40;;;;;;;;;;4941086;28;20530;-77
2023/02/02 01:30:31;;;;;;;12.67;3.63;;;;;;;;;;4913719;29;20771;-76
2023/02/02 01:32:56;;;;;;;13.20;3.20;;;;;;;;;;4950476;28;20229;-76
2023/02/02 01:35:22;;;;;;;12.17;2.77;;;;;;;;;;4925027;28;20242;-76
2023/02/02 01:37:50;;;;;;;12.57;3.67;;;;;;;;;;4942008;28;20231;-76
2023/02/02 01:40:20;;;;;;;12.07;3.67;;;;;;;;;;4910307;28;20219;-75
2023/02/02 01:42:48;;;;;;;10.73;2.60;;;;;;;;;;4966574;28;20733;-77
2023/02/02 01:45:26;;;;;;;14.60;3.40;;;;;;;;;;4965549;28;20249;-77
2023/02/02 01:47:54;;;;;;;9.10;3.30;;;;;;;;;;4963612;28;20222;-76
2023/02/02 01:50:21;;;;;;;9.83;3.17;;;;;;;;;;4925356;28;20299;-77
2023/02/02 01:52:48;;;;;;;13.13;3.80;;;;;;;;;;4921798;28;20663;-75
2023/02/02 01:55:19;;;;;;;13.27;3.23;;;;;;;;;;4909234;28;20231;-77
2023/02/02 01:58:10;;;;;;;14.17;4.23;;;;;;;;;;4926232;28;20242;-76
2023/02/02 02:00:41;;;;;;;15.60;3.40;;;;;;;;;;4964221;28;20242;-75
2023/02/02 02:03:12;;;;;;;23.43;4.13;;;;;;;;;;4945750;28;20214;-76
2023/02/02 02:06:14;;;;;;;20.30;3.80;;;;;;;;;;4938826;28;20231;-76
2023/02/02 02:08:47;;;;;;;13.53;3.57;;;;;;;;;;4932023;28;20235;-75
2023/02/02 02:11:16;;;;;;;14.33;3.53;;;;;;;;;;4945233;28;20277;-77
2023/02/02 02:16:48;;;;;;;12.27;3.20;;;;;;;;;;4937190;28;20313;-77
2023/02/02 02:19:15;;;;;;;15.43;3.50;;;;;;;;;;4950304;28;20219;-77
2023/02/02 02:28:14;;;;;;;11.77;3.23;;;;;;;;;;4964649;28;20242;-75
2023/02/02 02:31:07;;;;;;;13.27;3.63;;;;;;;;;;4967514;28;20281;-76
2023/02/02 02:34:16;;;;;;;11.23;2.87;;;;;;;;;;4950848;28;20229;-77
2023/02/02 02:36:53;;;;;;;10.73;2.93;;;;;;;;;;4939995;28;20239;-75
2023/02/02 02:39:19;;;;;;;13.43;3.40;;;;;;;;;;4925854;28;20482;-75
2023/02/02 02:41:47;;;;;;;13.17;3.33;;;;;;;;;;4948850;28;20705;-76
2023/02/02 02:44:16;;;;;;;10.33;3.20;;;;;;;;;;4923861;28;20262;-75
2023/02/02 02:46:44;;;;;;;18.60;3.63;;;;;;;;;;4933858;28;20234;-77
2023/02/02 02:49:14;;;;;;;10.77;3.00;;;;;;;;;;4942161;28;20265;-76
2023/02/02 02:51:53;;;;;;;15.10;3.47;;;;;;;;;;4941383;28;20609;-75
2023/02/02 02:54:28;;;;;;;10.50;2.90;;;;;;;;;;4957065;28;20245;-76
2023/02/02 02:57:13;;;;;;;14.33;2.87;;;;;;;;;;4928716;28;20235;-75
2023/02/02 02:59:56;;;;;;;12.97;3.23;;;;;;;;;;4936408;29;20309;-75
2023/02/02 03:02:33;;;;;;;12.27;3.20;;;;;;;;;;4951372;28;20222;-76
2023/02/02 03:05:20;;;;;;;14.53;3.57;;;;;;;;;;4953053;28;20252;-76
2023/02/02 03:07:54;;;;;;;12.27;3.53;;;;;;;;;;4968327;28;20238;-75
2023/02/02 03:10:23;;;;;;;17.27;3.20;;;;;;;;;;4955482;28;20211;-76
2023/02/02 03:12:49;;;;;;;15.10;3.43;;;;;;;;;;4942848;28;20691;-76
2023/02/02 03:15:17;;;;;;;14.10;3.57;;;;;;;;;;4931979;28;20241;-76
2023/02/02 03:17:46;;;;;;;16.43;3.40;;;;;;;;;;4913414;28;20234;-75
2023/02/02 03:20:14;;;;;;;14.03;3.10;;;;;;;;;;4926669;28;20215;-76
2023/02/02 03:22:39;;;;;;;12.60;3.30;;;;;;;;;;4932666;28;20341;-76
2023/02/02 03:25:10;;;;;;;14.33;3.37;;;;;;;;;;4938474;28;20223;-76
2023/02/02 03:27:37;;;;;;;22.57;3.73;;;;;;;;;;4943999;28;20234;-75
2023/02/02 03:30:07;;;;;;;12.63;3.40;;;;;;;;;;4927188;28;20975;-76
2023/02/02 03:32:33;;;;;;;11.90;2.93;;;;;;;;;;4940050;29;20234;-74
2023/02/02 03:35:03;;;;;;;9.33;2.67;;;;;;;;;;4946045;28;20226;-75
2023/02/02 03:37:36;;;;;;;9.50;2.07;;;;;;;;;;4950582;28;20245;-77
2023/02/02 03:40:05;;;;;;;10.40;3.13;;;;;;;;;;4958087;28;20222;-75
2023/02/02 03:42:32;;;;;;;13.60;3.27;;;;;;;;;;4939516;29;21210;-76
2023/02/02 03:45:01;;;;;;;11.40;2.70;;;;;;;;;;4938795;28;20640;-75
2023/02/02 03:47:28;;;;;;;7.63;2.17;;;;;;;;;;4953778;28;20230;-76
2023/02/02 03:49:56;;;;;;;20.70;2.83;;;;;;;;;;4939755;28;20645;-75
2023/02/02 03:52:22;;;;;;;12.17;3.17;;;;;;;;;;4935787;28;20233;-76
2023/02/02 03:54:50;;;;;;;7.80;2.47;;;;;;;;;;4942872;28;20235;-76
2023/02/02 03:57:17;;;;;;;9.47;2.57;;;;;;;;;;4924195;28;20218;-76
2023/02/02 03:59:45;;;;;;;11.17;2.83;;;;;;;;;;4909300;28;20229;-75
2023/02/02 04:02:15;;;;;;;12.97;3.13;;;;;;;;;;4934450;28;20591;-76
2023/02/02 04:04:41;;;;;;;7.30;2.73;;;;;;;;;;4952677;28;20238;-75
2023/02/02 04:07:08;;;;;;;8.43;2.63;;;;;;;;;;4951727;28;20223;-76
2023/02/02 04:09:39;;;;;;;13.83;2.83;;;;;;;;;;4956366;28;20277;-77
2023/02/02 04:12:07;;;;;;;12.33;3.17;;;;;;;;;;4938083;28;20223;-77
2023/02/02 04:14:35;;;;;;;8.80;2.87;;;;;;;;;;4928208;28;20241;-75
2023/02/02 04:17:05;;;;;;;12.43;3.20;;;;;;;;;;4937631;28;20219;-76
2023/02/02 04:19:33;;;;;;;7.87;2.67;;;;;;;;;;4949928;28;20797;-76
2023/02/02 04:21:58;;;;;;;11.93;3.07;;;;;;;;;;4967061;28;20325;-76
2023/02/02 04:24:29;;;;;;;11.97;3.30;;;;;;;;;;4937543;28;20221;-75
2023/02/02 04:26:57;;;;;;;9.27;3.00;;;;;;;;;;4940384;28;20231;-76
2023/02/02 04:29:27;;;;;;;14.03;3.47;;;;;;;;;;4953362;28;20218;-76
2023/02/02 04:31:52;;;;;;;11.63;3.00;;;;;;;;;;4934316;28;20245;-76
2023/02/02 04:34:21;;;;;;;9.33;2.73;;;;;;;;;;4913919;28;20231;-76
2023/02/02 04:36:49;;;;;;;9.43;2.47;;;;;;;;;;4940958;28;20711;-76
2023/02/02 04:39:19;;;;;;;9.80;2.80;;;;;;;;;;4966495;28;20241;-75
2023/02/02 04:41:49;;;;;;;16.60;3.97;;;;;;;;;;4944228;28;20219;-75
2023/02/02 04:44:14;;;;;;;13.60;2.80;;;;;;;;;;4942397;28;20310;-76
2023/02/02 04:46:43;;;;;;;14.10;3.00;;;;;;;;;;4926464;28;20952;-76
2023/02/02 04:49:11;;;;;;;10.37;2.53;;;;;;;;;;4966999;28;20689;-76
2023/02/02 04:51:38;;;;;;;12.57;3.10;;;;;;;;;;4933726;29;20233;-77
2023/02/02 04:54:04;;;;;;;13.87;3.27;;;;;;;;;;4934218;28;20265;-76
2023/02/02 04:56:32;;;;;;;10.03;2.73;;;;;;;;;;4950683;28;20703;-77
2023/02/02 04:59:00;;;;;;;13.43;3.17;;;;;;;;;;4924625;28;20235;-76
2023/02/02 05:01:29;;;;;;;10.27;3.13;;;;;;;;;;4939825;28;20334;-76
2023/02/02 05:03:59;;;;;;;12.83;3.50;;;;;;;;;;4937936;28;20223;-77
2023/02/02 05:06:25;;;;;;;10.50;2.63;;;;;;;;;;4939687;28;20231;-77
2023/02/02 05:08:50;;;;;;;7.47;2.60;;;;;;;;;;4927139;28;20238;-76
2023/02/02 05:11:19;;;;;;;17.30;3.00;;;;;;;;;;4935703;28;20242;-75
2023/02/02 05:13:49;;;;;;;11.90;3.30;;;;;;;;;;4925202;28;20227;-74
2023/02/02 05:16:19;;;;;;;9.13;2.67;;;;;;;;;;4929157;28;20219;-74
2023/02/02 05:18:54;;;;;;;9.87;2.90;;;;;;;;;;4950275;28;20223;-76
2023/02/02 05:21:19;;;;;;;10.23;2.97;;;;;;;;;;4913273;28;20221;-75
2023/02/02 05:23:45;;;;;;;9.53;2.77;;;;;;;;;;4930981;28;20583;-78
2023/02/02 05:26:20;;;;;;;7.80;2.93;;;;;;;;;;4922508;28;20274;-76
2023/02/02 05:28:51;;;;;;;15.27;3.13;;;;;;;;;;4942466;28;20222;-76
2023/02/02 05:31:19;;;;;;;20.13;3.70;;;;;;;;;;4925531;28;20222;-76
2023/02/02 05:33:45;;;;;;;12.80;3.13;;;;;;;;;;4950137;28;20793;-77
2023/02/02 05:36:12;;;;;;;16.23;2.90;;;;;;;;;;4919757;28;20226;-76
2023/02/02 05:38:40;;;;;;;10.40;2.93;;;;;;;;;;4951432;28;20286;-77
2023/02/02 05:41:08;;;;;;;10.80;2.70;;;;;;;;;;4942651;28;20230;-76
2023/02/02 05:43:38;;;;;;;10.57;3.27;;;;;;;;;;4939943;28;20231;-75
2023/02/02 05:46:10;;;;;;;12.73;3.67;;;;;;;;;;4931285;28;20219;-75
2023/02/02 05:48:38;;;;;;;10.40;3.37;;;;;;;;;;4943175;28;20230;-76
2023/02/02 05:51:09;;;;;;;9.67;3.13;;;;;;;;;;4948799;28;20217;-76
2023/02/02 05:53:34;;;;;;;12.93;3.60;;;;;;;;;;4953327;28;20265;-76
2023/02/02 05:56:04;;;;;;;12.30;3.23;;;;;;;;;;4944246;28;20222;-76
2023/02/02 05:58:32;;;;;;;16.53;3.37;;;;;;;;;;4940637;29;20230;-75
2023/02/02 06:01:00;;;;;;;16.27;3.47;;;;;;;;;;4925582;28;20223;-76
2023/02/02 06:03:26;;;;;;;11.83;3.37;;;;;;;;;;4940159;28;20249;-76
2023/02/02 06:05:54;;;;;;;8.03;3.20;;;;;;;;;;4967170;28;20285;-76
2023/02/02 06:08:19;;;;;;;13.47;3.67;;;;;;;;;;4925687;29;20234;-75
2023/02/02 06:10:45;;;;;;;26.50;3.90;;;;;;;;;;4940790;28;20702;-76
2023/02/02 06:13:13;;;;;;;13.03;3.23;;;;;;;;;;4940172;28;20237;-75
2023/02/02 06:15:44;;;;;;;12.50;3.40;;;;;;;;;;4923666;28;20238;-76
2023/02/02 06:18:17;;;;;;;15.70;3.80;;;;;;;;;;4929439;28;20337;-76
2023/02/02 06:20:46;;;;;;;20.63;3.33;;;;;;;;;;4933458;28;20648;-76
2023/02/02 06:23:11;;;;;;;12.87;3.03;;;;;;;;;;4948325;28;20266;-76
2023/02/02 06:25:37;;;;;;;10.60;3.47;;;;;;;;;;4911072;29;20239;-76
2023/02/02 06:28:03;;;;;;;13.20;3.30;;;;;;;;;;4934113;28;20612;-76
2023/02/02 06:30:31;;;;;;;13.27;3.50;;;;;;;;;;4928072;29;20360;-76
2023/02/02 06:32:58;;;;;;;18.87;3.50;;;;;;;;;;4942590;28;20679;-77
2023/02/02 06:35:23;;;;;;;15.90;3.60;;;;;;;;;;4938056;28;20238;-76
2023/02/02 06:37:49;;;;;;;15.13;3.90;;;;;;;;;;4954416;28;20274;-75
2023/02/02 06:40:17;;;;;;;15.13;3.07;;;;;;;;;;4938316;28;21135;-75
2023/02/02 06:42:42;;;;;;;13.27;3.30;;;;;;;;;;4942799;28;20233;-76
2023/02/02 06:45:08;;;;;;;9.87;3.30;;;;;;;;;;4938970;28;20698;-76
2023/02/02 06:47:38;;;;;;;11.20;3.00;;;;;;;;;;4938435;29;20395;-76
2023/02/02 06:50:07;;;;;;;13.57;3.37;;;;;;;;;;4964058;28;20238;-74
2023/02/02 06:52:35;;;;;;;12.63;3.63;;;;;;;;;;4917936;28;20228;-75
2023/02/02 06:55:02;;;;;;;13.10;3.40;;;;;;;;;;4967327;28;20834;-77
2023/02/02 06:57:28;;;;;;;11.43;3.80;;;;;;;;;;4933297;28;20254;-76
2023/02/02 06:59:58;;;;;;;13.10;2.87;;;;;;;;;;4950546;28;20238;-75
2023/02/02 07:02:26;;;;;;;13.90;3.37;;;;;;;;;;4951963;28;20261;-75
2023/02/02 07:04:54;;;;;;;13.27;3.27;;;;;;;;;;4934760;28;20285;-76
2023/02/02 07:07:23;;;;;;;15.10;3.83;;;;;;;;;;4949456;28;20223;-75
2023/02/02 07:09:51;;;;;;;11.33;3.47;;;;;;;;;;4953037;28;20223;-74
2023/02/02 07:12:18;;;;;;;13.00;3.37;;;;;;;;;;4948636;28;20621;-75
2023/02/02 07:14:48;;;;;;;13.20;3.80;;;;;;;;;;4925572;28;20389;-75
2023/02/02 07:17:17;;;;;;;13.43;3.33;;;;;;;;;;4933789;28;20742;-76
2023/02/02 07:19:42;;;;;;;8.77;3.03;;;;;;;;;;4963886;23;20228;-85
2023/02/02 07:22:08;;;;;;;13.67;3.37;;;;;;;;;;5017659;28;20243;-81
2023/02/02 07:24:37;;;;;;;9.73;2.90;;;;;;;;;;4996860;28;20229;-86
2023/02/02 07:27:03;;;;;;;15.87;4.13;;;;;;;;;;4992273;28;20228;-83
2023/02/02 07:29:29;;;;;;;10.40;3.37;;;;;;;;;;4989353;28;20773;-83
2023/02/02 07:31:57;;;;;;;13.97;4.03;;;;;;;;;;4998801;28;20230;-82
2023/02/02 07:34:27;;;;;;;15.50;3.10;;;;;;;;;;5009347;28;20228;-83
2023/02/02 07:36:53;;;;;;;13.70;3.17;;;;;;;;;;5017866;28;20756;-84
2023/02/02 07:39:18;;;;;;;14.30;3.10;;;;;;;;;;4977356;28;20231;-83
2023/02/02 07:41:44;;;;;;;19.53;4.43;;;;;;;;;;5030423;28;20232;-83
2023/02/02 07:44:22;;;;;;;12.43;4.17;;;;;;;;;;5015520;28;20295;-83
2023/02/02 07:46:50;;;;;;;21.90;5.13;;;;;;;;;;4993677;28;20244;-83
2023/02/02 07:49:16;;;;;;;11.83;4.00;;;;;;;;;;5027627;28;20208;-81
2023/02/02 07:51:46;;;;;;;17.37;3.57;;;;;;;;;;5015163;28;20674;-83
2023/02/02 07:54:12;;;;;;;16.53;4.93;;;;;;;;;;5017759;28;20295;-81
2023/02/02 07:56:40;;;;;;;11.07;4.60;;;;;;;;;;5010679;28;20217;-82
2023/02/02 07:59:06;;;;;;;15.00;6.27;;;;;;;;;;5003987;28;20219;-80
2023/02/02 08:01:31;;;;;;;28.70;11.13;;;;;;;;;;5034159;28;20232;-81
2023/02/02 08:04:00;;;;;;;19.03;8.37;;;;;;;;;;5026424;28;20314;-82
2023/02/02 08:06:28;;;;;;;16.37;6.17;;;;;;;;;;5034766;28;20302;-81
2023/02/02 08:08:54;;;;;;;13.30;4.67;;;;;;;;;;5028438;28;20601;-81
2023/02/02 08:11:20;;;;;;;14.17;4.87;;;;;;;;;;5029118;28;20216;-82
2023/02/02 08:13:52;;;;;;;22.00;4.73;;;;;;;;;;5029273;28;20231;-81
2023/02/02 08:16:18;;;;;;;11.73;3.63;;;;;;;;;;5043892;28;20228;-81
2023/02/02 08:18:43;;;;;;;16.70;6.37;;;;;;;;;;5001211;28;20238;-82
2023/02/02 08:21:09;;;;;;;14.70;4.30;;;;;;;;;;4989511;28;20226;-81
2023/02/02 08:23:38;;;;;;;13.87;3.90;;;;;;;;;;5034162;28;20274;-82
2023/02/02 08:26:21;;;;;;;16.13;3.80;;;;;;;;;;5012070;28;20232;-81
2023/02/02 08:28:48;;;;;;;16.87;3.50;;;;;;;;;;5014894;28;20220;-81
2023/02/02 08:31:18;;;;;;;12.20;3.83;;;;;;;;;;5000916;28;20216;-81
2023/02/02 08:33:44;;;;;;;16.43;3.70;;;;;;;;;;5020931;28;20231;-82
2023/02/02 08:36:13;;;;;;;15.07;4.00;;;;;;;;;;5029692;28;20229;-81
2023/02/02 08:38:39;;;;;;;15.83;4.03;;;;;;;;;;5012008;28;20235;-84
2023/02/02 08:41:05;;;;;;;11.30;3.47;;;;;;;;;;5029530;28;20228;-81
2023/02/02 08:43:33;;;;;;;12.00;3.70;;;;;;;;;;5003041;28;20227;-84
2023/02/02 08:45:59;;;;;;;12.97;3.43;;;;;;;;;;5007487;28;20537;-82
2023/02/02 08:48:29;;;;;;;10.53;3.23;;;;;;;;;;5012666;28;20228;-83
2023/02/02 08:50:58;;;;;;;14.63;3.93;;;;;;;;;;5042307;28;20223;-82
2023/02/02 08:53:26;;;;;;;10.07;3.03;;;;;;;;;;5007409;28;20228;-81
2023/02/02 08:56:06;;;;;;;15.23;4.33;;;;;;;;;;5025037;28;20267;-82
2023/02/02 08:58:32;;;;;;;13.47;3.53;;;;;;;;;;5003845;28;20232;-81
2023/02/02 09:01:04;;;;;;;18.50;3.93;;;;;;;;;;5005748;28;20224;-82
2023/02/02 09:03:30;;;;;;;18.67;4.10;;;;;;;;;;5033732;28;20745;-83
2023/02/02 09:05:55;;;;;;;15.87;4.57;;;;;;;;;;5028832;28;20322;-82
2023/02/02 09:08:21;;;;;;;13.60;3.40;;;;;;;;;;5034683;28;20221;-83
2023/02/02 09:10:49;;;;;;;14.10;3.80;;;;;;;;;;4992269;28;20252;-83
2023/02/02 09:13:17;;;;;;;13.67;3.63;;;;;;;;;;5032541;28;20224;-82
2023/02/02 09:15:43;;;;;;;10.93;3.13;;;;;;;;;;5005266;28;20225;-81
2023/02/02 09:18:13;;;;;;;19.23;4.00;;;;;;;;;;5010787;28;20619;-81
2023/02/02 09:20:40;;;;;;;14.07;3.97;;;;;;;;;;5013696;28;20212;-81
2023/02/02 09:23:08;;;;;;;10.83;3.13;;;;;;;;;;4976719;28;20221;-80
2023/02/02 09:25:34;;;;;;;10.80;3.57;;;;;;;;;;4999163;28;20224;-80
2023/02/02 09:27:59;;;;;;;9.53;3.17;;;;;;;;;;4990229;28;20214;-81
2023/02/02 09:30:25;;;;;;;14.33;3.93;;;;;;;;;;4999015;28;20212;-81
2023/02/02 09:32:53;;;;;;;12.20;3.17;;;;;;;;;;4996479;28;20223;-80
2023/02/02 09:35:23;;;;;;;13.33;3.10;;;;;;;;;;4995072;28;20216;-80
2023/02/02 09:37:48;;;;;;;15.97;3.70;;;;;;;;;;5019314;28;20236;-81
2023/02/02 09:40:20;;;;;;;13.63;3.47;;;;;;;;;;5006533;28;20267;-79
2023/02/02 09:42:54;;;;;;;15.43;3.53;;;;;;;;;;5014384;28;20228;-81
2023/02/02 09:45:27;;;;;;;14.07;3.33;;;;;;;;;;5024944;28;20230;-81
2023/02/02 09:48:12;;;;;;;13.67;3.33;;;;;;;;;;4993717;28;20236;-81
2023/02/02 09:50:42;;;;;;;15.63;4.50;;;;;;;;;;5008830;28;20712;-80
2023/02/02 09:53:20;;;;;;;13.77;3.27;;;;;;;;;;5021679;28;20224;-80
2023/02/02 09:55:47;;;;;;;13.23;3.17;;;;;;;;;;5030652;28;20267;-80
2023/02/02 09:58:16;;;;;;;8.50;3.10;;;;;;;;;;5028671;28;20212;-81
2023/02/02 10:01:03;;;;;;;13.80;3.57;;;;;;;;;;5028947;28;20254;-81
2023/02/02 10:03:49;;;;;;;14.17;3.10;;;;;;;;;;5002397;28;20271;-82
2023/02/02 10:06:33;;;;;;;14.37;3.03;;;;;;;;;;5033073;28;20307;-81
2023/02/02 10:09:13;;;;;;;12.13;3.57;;;;;;;;;;5021271;28;20224;-82
2023/02/02 10:11:44;;;;;;;15.23;3.70;;;;;;;;;;4993723;28;20231;-79
2023/02/02 10:14:27;;;;;;;13.90;3.33;;;;;;;;;;5006207;28;20217;-80
2023/02/02 10:16:58;;;;;;;12.47;3.63;;;;;;;;;;5000723;28;20225;-81
2023/02/02 10:19:27;;;;;;;17.87;3.40;;;;;;;;;;5008042;28;20220;-82
2023/02/02 10:22:03;;;;;;;12.47;3.13;;;;;;;;;;5009884;28;20228;-82
2023/02/02 10:24:29;;;;;;;11.70;3.07;;;;;;;;;;4987237;28;20212;-82
2023/02/02 10:27:03;;;;;;;14.40;3.93;;;;;;;;;;5012722;28;20231;-81
2023/02/02 10:29:34;;;;;;;15.17;3.30;;;;;;;;;;5006681;28;20255;-81
2023/02/02 10:32:13;;;;;;;12.07;3.60;;;;;;;;;;5017897;28;20228;-81
2023/02/02 10:35:04;;;;;;;11.83;2.87;;;;;;;;;;5020151;28;20311;-82
2023/02/02 10:38:08;;;;;;;9.87;3.23;;;;;;;;;;5019968;28;20221;-83
2023/02/02 10:40:43;;;;;;;11.90;4.00;;;;;;;;;;4981789;28;20237;-83
2023/02/02 10:43:45;;;;;;;9.53;2.97;;;;;;;;;;5022418;28;20310;-82
2023/02/02 10:46:32;;;;;;;16.00;3.63;;;;;;;;;;5034588;28;20227;-83
2023/02/02 10:49:21;;;;;;;9.83;3.53;;;;;;;;;;5003914;28;20319;-82
2023/02/02 10:52:08;;;;;;;11.77;2.87;;;;;;;;;;5013810;28;20260;-81
2023/02/02 10:54:49;;;;;;;6.93;2.33;;;;;;;;;;5012906;28;20236;-84
2023/02/02 10:57:17;;;;;;;11.00;3.20;;;;;;;;;;5019324;28;20228;-82
2023/02/02 10:59:59;;;;;;;16.13;3.37;;;;;;;;;;5007931;28;20228;-81
2023/02/02 11:02:25;;;;;;;8.50;2.40;;;;;;;;;;5007016;28;20225;-82
2023/02/02 11:07:35;;;;;;;8.30;2.47;;;;;;;;;;5012312;28;20227;-82
2023/02/02 11:10:03;;;;;;;11.07;2.63;;;;;;;;;;5002964;28;20237;-81
2023/02/02 11:12:33;;;;;;;9.10;2.30;;;;;;;;;;4996950;28;20299;-82
2023/02/02 11:15:04;;;;;;;7.60;2.53;;;;;;;;;;4988879;28;20224;-83
2023/02/02 11:17:34;;;;;;;10.77;2.67;;;;;;;;;;5018850;28;20307;-81
2023/02/02 11:20:00;;;;;;;9.00;3.20;;;;;;;;;;5010570;28;20222;-82
2023/02/02 11:22:35;;;;;;;12.30;3.23;;;;;;;;;;5009704;28;20220;-81
2023/02/02 11:25:05;;;;;;;11.27;2.50;;;;;;;;;;5013316;28;20215;-83
2023/02/02 11:27:38;;;;;;;12.03;3.13;;;;;;;;;;5040114;28;20277;-82
2023/02/02 11:30:22;;;;;;;7.87;2.10;;;;;;;;;;4983653;28;21113;-83
2023/02/02 11:32:50;;;;;;;11.07;2.40;;;;;;;;;;5035021;28;20239;-83
2023/02/02 11:35:24;;;;;;;6.97;2.20;;;;;;;;;;4998482;23;20245;-77
2023/02/02 11:38:07;;;;;;;6.13;2.43;;;;;;;;;;4962439;28;20226;-77
2023/02/02 11:40:45;;;;;;;9.97;2.33;;;;;;;;;;4961434;28;20234;-78
2023/02/02 11:43:33;;;;;;;10.97;3.13;;;;;;;;;;4945538;28;20213;-79
2023/02/02 11:46:27;;;;;;;10.33;2.23;;;;;;;;;;4966234;28;20226;-79
2023/02/02 11:49:01;;;;;;;6.43;2.47;;;;;;;;;;4961084;28;20226;-79
2023/02/02 11:51:29;;;;;;;10.77;2.47;;;;;;;;;;4949082;28;20226;-79
2023/02/02 11:54:03;;;;;;;5.93;2.07;;;;;;;;;;4932712;28;20226;-77
2023/02/02 11:56:29;;;;;;;8.77;1.97;;;;;;;;;;4963654;28;20226;-77
2023/02/02 11:58:55;;;;;;;5.37;2.03;;;;;;;;;;4948434;28;20230;-79
2023/02/02 12:01:31;;;;;;;10.53;2.10;;;;;;;;;;4962624;28;20230;-78
2023/02/02 12:03:58;;;;;;;8.73;3.20;;;;;;;;;;4947222;28;20577;-79
2023/02/02 12:06:37;;;;;;;8.63;2.30;;;;;;;;;;4975090;28;20661;-77
2023/02/02 12:09:16;;;;;;;9.00;2.23;;;;;;;;;;4944666;28;20354;-77
2023/02/02 12:12:02;;;;;;;5.20;1.73;;;;;;;;;;4963606;28;20244;-77
2023/02/02 12:14:30;;;;;;;9.37;2.07;;;;;;;;;;4961733;28;20242;-78
2023/02/02 12:17:11;;;;;;;6.93;2.10;;;;;;;;;;4957687;28;20231;-77
2023/02/02 12:19:55;;;;;;;4.70;2.00;;;;;;;;;;4960219;28;20229;-78
2023/02/02 12:22:40;;;;;;;6.90;2.10;;;;;;;;;;4962263;28;20223;-78
2023/02/02 12:25:13;;;;;;;5.53;1.53;;;;;;;;;;4957408;28;20253;-78
2023/02/02 12:27:54;;;;;;;8.90;2.40;;;;;;;;;;4944986;28;20218;-77
2023/02/02 12:30:27;;;;;;;6.90;3.50;;;;;;;;;;4946545;28;20223;-78
2023/02/02 12:33:07;;;;;;;11.53;3.80;;;;;;;;;;4943049;28;20225;-77
2023/02/02 12:35:57;;;;;;;8.33;3.60;;;;;;;;;;4946977;28;20253;-76
2023/02/02 12:38:43;;;;;;;7.27;1.97;;;;;;;;;;4972024;28;21790;-77
2023/02/02 12:41:17;;;;;;;5.83;2.50;;;;;;;;;;4975091;28;20236;-77
2023/02/02 12:43:44;;;;;;;8.77;2.67;;;;;;;;;;4952333;28;20241;-77
2023/02/02 12:46:30;;;;;;;5.23;2.17;;;;;;;;;;4924053;28;20219;-76
2023/02/02 12:49:10;;;;;;;5.07;1.50;;;;;;;;;;4934623;28;20812;-75
2023/02/02 12:51:53;;;;;;;4.57;2.00;;;;;;;;;;4955895;28;20226;-78
2023/02/02 12:54:27;;;;;;;5.87;1.50;;;;;;;;;;4956757;28;20281;-77
2023/02/02 12:57:22;;;;;;;2.97;1.47;;;;;;;;;;4954943;28;20234;-76
2023/02/02 12:59:54;;;;;;;3.93;1.10;;;;;;;;;;4956836;28;20234;-77
2023/02/02 13:02:21;;;;;;;10.57;1.70;;;;;;;;;;4956123;28;20308;-77
2023/02/02 13:08:06;;;;;;;5.87;2.10;;;;;;;;;;4966433;28;20314;-76
2023/02/02 13:10:37;;;;;;;3.33;1.37;;;;;;;;;;4967859;28;20287;-76
2023/02/02 13:13:15;;;;;;;3.30;1.10;;;;;;;;;;4953202;28;20226;-76
2023/02/02 13:15:51;;;;;;;5.00;1.30;;;;;;;;;;4964260;28;20348;-76
2023/02/02 13:18:25;;;;;;;8.03;1.90;;;;;;;;;;4959774;28;20222;-77
2023/02/02 13:20:55;;;;;;;4.13;1.60;;;;;;;;;;4948732;28;20273;-76
2023/02/02 13:23:49;;;;;;;4.10;1.30;;;;;;;;;;4974097;28;20780;-76
2023/02/02 13:26:17;;;;;;;3.60;1.50;;;;;;;;;;4937240;28;20223;-75
2023/02/02 13:29:06;;;;;;;7.40;1.90;;;;;;;;;;4959261;28;20321;-76
2023/02/02 13:31:42;;;;;;;5.67;2.50;;;;;;;;;;4954679;28;20325;-76
2023/02/02 13:34:12;;;;;;;5.83;2.10;;;;;;;;;;4956670;28;20226;-76
2023/02/02 13:36:42;;;;;;;5.87;1.40;;;;;;;;;;4952558;28;20306;-76
2023/02/02 13:39:22;;;;;;;4.33;1.63;;;;;;;;;;4938925;28;20228;-76
2023/02/02 13:41:48;;;;;;;5.00;1.67;;;;;;;;;;4927056;28;20812;-75
2023/02/02 13:44:23;;;;;;;5.13;1.40;;;;;;;;;;4952459;28;20217;-76
2023/02/02 13:47:05;;;;;;;8.97;1.60;;;;;;;;;;4937294;28;20247;-75
2023/02/02 13:49:44;;;;;;;11.37;5.30;;;;;;;;;;4938670;28;20291;-76
2023/02/02 13:52:15;;;;;;;6.63;2.43;;;;;;;;;;4935226;28;20222;-75
2023/02/02 13:55:01;;;;;;;4.73;1.67;;;;;;;;;;4953268;28;20233;-76
2023/02/02 13:57:44;;;;;;;4.80;2.37;;;;;;;;;;4956671;28;20222;-76
2023/02/02 14:00:19;;;;;;;3.40;1.33;;;;;;;;;;4951632;28;20223;-76
2023/02/02 14:02:48;;;;;;;3.20;1.47;;;;;;;;;;4954332;28;20645;-76
2023/02/02 14:05:32;;;;;;;7.03;2.67;;;;;;;;;;4910571;28;20222;-77
2023/02/02 14:08:02;;;;;;;6.70;4.00;;;;;;;;;;4953059;28;20682;-76
2023/02/02 14:11:03;;;;;;;6.87;1.53;;;;;;;;;;4917662;28;20268;-75
2023/02/02 14:16:28;;;;;;;5.53;1.30;;;;;;;;;;4952616;28;20223;-75
2023/02/02 14:19:00;;;;;;;4.80;2.43;;;;;;;;;;4964826;28;20782;-75
2023/02/02 14:21:33;;;;;;;6.93;1.70;;;;;;;;;;4953788;28;20730;-75
2023/02/02 14:24:21;;;;;;;5.47;1.83;;;;;;;;;;4953087;28;20322;-74
2023/02/02 14:26:55;;;;;;;3.73;2.30;;;;;;;;;;4953609;28;20288;-75
2023/02/02 14:29:32;;;;;;;5.50;1.60;;;;;;;;;;4948807;28;20226;-75
2023/02/02 14:32:19;;;;;;;5.80;1.87;;;;;;;;;;4957453;28;20226;-75
2023/02/02 14:34:45;;;;;;;6.43;1.50;;;;;;;;;;4956236;28;20355;-75
2023/02/02 14:37:25;;;;;;;3.23;1.20;;;;;;;;;;4928206;28;20286;-75
2023/02/02 14:40:04;;;;;;;5.23;1.70;;;;;;;;;;4965640;28;20214;-74
2023/02/02 14:45:42;;;;;;;2.67;1.23;;;;;;;;;;4953898;28;20295;-74
2023/02/02 14:48:15;;;;;;;3.67;1.27;;;;;;;;;;4955059;28;20668;-73
2023/02/02 14:50:44;;;;;;;6.17;1.60;;;;;;;;;;4925620;28;20230;-74
2023/02/02 14:53:13;;;;;;;4.60;1.37;;;;;;;;;;4954172;28;20229;-74
2023/02/02 14:56:02;;;;;;;5.27;1.53;;;;;;;;;;4953917;28;20313;-74
2023/02/02 14:58:33;;;;;;;2.90;1.77;;;;;;;;;;4943735;28;20235;-75
2023/02/02 15:01:08;;;;;;;6.73;2.43;;;;;;;;;;4942962;28;20222;-74
2023/02/02 15:03:42;;;;;;;5.23;3.20;;;;;;;;;;4952869;28;20245;-74
2023/02/02 15:06:41;;;;;;;7.80;3.40;;;;;;;;;;4953222;28;20256;-74
2023/02/02 15:09:19;;;;;;;6.53;1.93;;;;;;;;;;4959775;28;20281;-73
2023/02/02 15:12:03;;;;;;;6.63;2.10;;;;;;;;;;4950829;28;21057;-73
2023/02/02 15:14:37;;;;;;;3.50;2.37;;;;;;;;;;4951638;28;20249;-74
2023/02/02 15:17:08;;;;;;;16.83;9.40;;;;;;;;;;4969334;28;20232;-74
2023/02/02 15:19:43;;;;;;;22.50;15.30;;;;;;;;;;4949487;28;20337;-75
2023/02/02 15:22:31;;;;;;;6.43;3.43;;;;;;;;;;4951402;28;20234;-75